Wright Patterson Air Force Base
KFFO : now visible

Airfield :











YOU CAN JOIN US ON...

 
LOGIN :

Register | Disclaimer

   EN    FR    IT 

 









Legend :    VFR   Marginal VFR   IFR   Intensive IFR   Very Intensive IFR
Visi :
Ceiling :
>= 8 km
>= 3000ft
5 to 8 km
1000 to 3000 ft
1500m to 5 km
500 to 1000 ft
800 to 1500m
200 to 500 ft
< 800m
< 200 ft
Symbols :   Thunderstorms  Fog  Heavy snow  Heavy precipitations  Wind > 20 kt






- Airport Elevation : 823 ft


KFFO - Wright Patterson Air Force Base

CURRENT METAR :
  • 240556Z 24007KT 10SM BKN015 11/10 A2991 RMK AO2A BKN V SCT SLP131 60014 T01090098 10120 20106 53001

EXPIRED METARs :
  • 240525Z 24008KT 10SM BKN015 OVC021 12/10 A2992 RMK AO2A CIG 015V021 SLP135
  • 240505Z AUTO 24008KT 10SM BKN015 OVC020 12/11 A2992 RMK AO2 SLPNO
  • 240455Z 25008KT 10SM OVC014 12/10 A2992 RMK AO2A CIG 012 RWY05L SLP133 T01200104 401860084
  • 240355Z 22004KT 10SM SCT018 OVC025 11/10 A2991 RMK AO2A CIG 022 RWY05L SLP130 T01140101
  • 240255Z 16006KT 10SM BKN030 11/10 A2991 RMK AO2A SLP130 P0002 60014 T01070096 58002
  • 240250Z 17007KT 10SM BKN029 11/10 A2991 RMK AO2A SLP130
  • 240155Z 13003KT 6SM -RA BR SCT030 OVC041 11/10 A2992 RMK AO2A SLP135 P0005 T01090098

TAF AMD TAF KFFO
Valid from the 24 at 04:00 until the 25 at 09:00 UTC


240436Z 2404/2509 VRB06KT 9999 BKN025 OVC050 520103 QNH2988INS
BECMG 2405/2407 VRB06KT 9999 BKN015 OVC025 510103 QNH2993INS
BECMG 2409/2411 29009KT 9999 OVC009 510103 QNH2998INS
BECMG 2413/2415 32012KT 9999 OVC012 QNH3008INS
BECMG 2415/2417 35012KT 9999 SCT030 QNH3014INS WND 01009KT AFT 2422
BECMG 2500/2501 04006KT 9999 FEW025 QNH3022INS TX12/2419Z TN08/2411Z
KZID FIR / North America



MET'MAP, your aeronautical weather chart ! - Copyright ORBIFLY December 2007 - Disclaimer

ORBIFLY MET'MAP TEAM :

Programming & Development : Alexandra Zaïnal
Original concept : Baudouin d'Aumeries
Technical & hardware support : Manuel Goepfert
Assistance : Marc-Olivier Méhu




SOURCES & CREDITS :

   NOAA       Earth
Advisory